Portada
METAR-TAF:

METAR-TAF

Aeroports :

Mérida, Mèxic

latitud: 20-56N, longitud: 089-39W, altitud: 10 m

Observació

L'informe es va fer fa 1 hora i 4 minuts, a les 11:45 UTC
Vent 4 kt del Est
Temperatura 20°C
Humitat 94%
Pressió 1015 hPa
Visibilitat: 11.3 km
Cel clar

METAR: MMMD 181145Z 09004KT 7SM SKC 20/19 A2997 RMK SLP148 52002 907 HZY

Hora: 06:49 (12:49 UTC)

Pronòstic

L'informe es va fer fa 2 hores i 29 minuts, a les 10:20 UTC
Pronòstic vàlid del 18 a les 12 UTC al 19 a les 18 UTC
Vent 4 kt del Est
Visibilitat: 10 km
Cel clar
A partir de les 18 a les 1800 UTC
Vent 12 kt del Est/Sud-Est
Visibilitat: 10 km
Cel ennuvolat a una alçada de 2500 ft
A partir de les 19 a les 0600 UTC
Vent 5 kt del Sud-Est
Visibilitat: 10 km
Núvols disperses a una alçada de 2500 ft
Evolucionant progressivament
l' 19 a les 11 UTC al 19 a les 13 UTC
Vent 5 kt del Est

TAF: MMMD 181020Z 1812/1918 09004KT P6SM SKC TX34/1820Z TN21/1812Z FM181800 12012KT P6SM BKN025 FM190600 13005KT P6SM SCT025 BECMG 1911/1913 08005KT

Observacions i pronòstics meteorològics de més de 4000 aeroports (METAR i TAF).

Les estacions disponibles són els punts grocs i vermells al mapa.

Posi el ratolí al punt desitjat per veure el nom de l'estació.

Feu clic per veure les observacions i els pronòstics meteorològics.

Per canviar el mapa: feu clic els botons verds amb una creu de color negre per apropar; al botó verd amb un guió per allunyar la imatge; o en les fletxes verdes per a mapes adjacents.


METAR-TAF: